createdAt,value
2022-10-01T00:01:12.218Z,14.90
2022-10-01T00:03:39.057Z,14.90
2022-10-01T00:06:12.544Z,14.87
2022-10-01T00:08:41.838Z,14.89
2022-10-01T00:11:16.796Z,14.87
2022-10-01T00:13:44.316Z,14.90
2022-10-01T00:16:13.888Z,14.89
2022-10-01T00:18:43.008Z,14.90
2022-10-01T00:21:20.591Z,14.90
2022-10-01T00:23:47.790Z,14.91
2022-10-01T00:26:25.580Z,14.91
2022-10-01T00:28:57.478Z,14.90
2022-10-01T00:31:25.101Z,14.91
2022-10-01T00:33:53.313Z,14.90
2022-10-01T00:36:20.429Z,14.92
2022-10-01T00:38:48.324Z,14.94
2022-10-01T00:41:16.786Z,14.95
2022-10-01T00:43:46.840Z,14.94
2022-10-01T00:46:28.752Z,14.94
2022-10-01T00:49:09.186Z,14.95
2022-10-01T00:51:49.923Z,14.94
2022-10-01T00:54:22.732Z,14.97
2022-10-01T00:56:53.608Z,14.97
2022-10-01T00:59:20.768Z,14.98
2022-10-01T01:01:47.453Z,14.98
2022-10-01T01:04:16.947Z,14.98
2022-10-01T01:06:48.178Z,14.96
2022-10-01T01:09:14.859Z,14.97
2022-10-01T01:11:57.894Z,14.93
2022-10-01T01:14:32.701Z,14.90
2022-10-01T01:17:08.182Z,14.90
2022-10-01T01:20:06.141Z,14.83
2022-10-01T01:22:36.601Z,14.82
2022-10-01T01:25:15.287Z,14.75
2022-10-01T01:27:44.583Z,14.71
2022-10-01T01:30:15.246Z,14.67
2022-10-01T01:32:52.923Z,14.59
2022-10-01T01:35:56.533Z,14.54
2022-10-01T01:38:30.370Z,14.53
2022-10-01T01:41:03.149Z,14.49
2022-10-01T01:43:33.845Z,14.44
2022-10-01T01:46:05.085Z,14.40
2022-10-01T01:48:33.356Z,14.36
2022-10-01T01:51:12.459Z,14.30
2022-10-01T01:53:39.467Z,14.28
2022-10-01T01:56:07.916Z,14.22
2022-10-01T01:58:35.905Z,14.19
2022-10-01T02:01:03.304Z,14.14
2022-10-01T02:03:33.797Z,14.11
2022-10-01T02:06:26.736Z,14.05
2022-10-01T02:09:08.910Z,14.01
2022-10-01T02:11:44.856Z,13.99
2022-10-01T02:14:31.068Z,13.94
2022-10-01T02:17:13.234Z,13.92
2022-10-01T02:20:18.401Z,13.87
2022-10-01T02:23:03.136Z,13.86
2022-10-01T02:25:39.806Z,13.84
2022-10-01T02:28:11.238Z,13.82
2022-10-01T02:30:41.767Z,13.81
2022-10-01T02:33:11.101Z,13.78
2022-10-01T02:35:38.152Z,13.77
2022-10-01T02:38:07.192Z,13.73
2022-10-01T02:40:38.366Z,13.70
2022-10-01T02:43:15.819Z,13.67
2022-10-01T02:45:46.334Z,13.68
2022-10-01T02:48:17.545Z,13.69
2022-10-01T02:50:50.206Z,13.66
2022-10-01T02:53:25.501Z,13.64
2022-10-01T02:55:53.507Z,13.65
2022-10-01T02:58:20.348Z,13.64
2022-10-01T03:00:46.912Z,13.62
2022-10-01T03:03:13.606Z,13.59
2022-10-01T03:05:40.180Z,13.58
2022-10-01T03:08:06.774Z,13.55
2022-10-01T03:10:33.727Z,13.54
2022-10-01T03:13:01.773Z,13.53
2022-10-01T03:15:28.664Z,13.52
2022-10-01T03:17:55.394Z,13.50
2022-10-01T03:20:22.506Z,13.46
2022-10-01T03:22:49.254Z,13.45
2022-10-01T03:25:16.491Z,13.43
2022-10-01T03:27:43.472Z,13.43
2022-10-01T03:30:10.972Z,13.41
2022-10-01T03:32:37.599Z,13.41
2022-10-01T03:35:04.932Z,13.39
2022-10-01T03:37:31.507Z,13.38
2022-10-01T03:39:58.025Z,13.37
2022-10-01T03:42:24.618Z,13.36
2022-10-01T03:44:51.176Z,13.34
2022-10-01T03:47:17.734Z,13.32
2022-10-01T03:49:44.252Z,13.32
2022-10-01T03:52:10.767Z,13.29
2022-10-01T03:54:37.954Z,13.29
2022-10-01T03:57:04.458Z,13.25
2022-10-01T03:59:30.957Z,13.22
2022-10-01T04:01:57.601Z,13.19
2022-10-01T04:04:24.225Z,13.16
2022-10-01T04:06:50.744Z,13.13
2022-10-01T04:09:17.284Z,13.10
2022-10-01T04:11:43.837Z,13.06
2022-10-01T04:14:10.383Z,13.02
2022-10-01T04:16:37.019Z,12.97
2022-10-01T04:19:04.917Z,12.92
2022-10-01T04:21:31.689Z,12.89
2022-10-01T04:23:59.714Z,12.85
2022-10-01T04:26:26.532Z,12.81
2022-10-01T04:28:53.238Z,12.80
2022-10-01T04:31:25.844Z,12.77
2022-10-01T04:33:57.630Z,12.73
2022-10-01T04:36:25.733Z,12.74
2022-10-01T04:38:58.009Z,12.71
2022-10-01T04:41:27.611Z,12.71
2022-10-01T04:43:54.153Z,12.70
2022-10-01T04:46:20.826Z,12.68
2022-10-01T04:48:49.228Z,12.66
2022-10-01T04:51:16.898Z,12.64
2022-10-01T04:53:43.665Z,12.64
2022-10-01T04:56:10.222Z,12.64
2022-10-01T04:58:37.831Z,12.62
2022-10-01T05:01:04.451Z,12.62
2022-10-01T05:03:31.694Z,12.62
2022-10-01T05:05:58.456Z,12.62
2022-10-01T05:08:25.156Z,12.62
2022-10-01T05:10:51.723Z,12.63
2022-10-01T05:13:18.285Z,12.64
2022-10-01T05:15:44.900Z,12.64
2022-10-01T05:18:11.479Z,12.65
2022-10-01T05:20:38.439Z,12.67
2022-10-01T05:23:05.025Z,12.68
2022-10-01T05:25:31.693Z,12.70
2022-10-01T05:28:05.893Z,12.70
2022-10-01T05:30:33.771Z,12.72
2022-10-01T05:33:02.547Z,12.73
2022-10-01T05:35:29.730Z,12.75
2022-10-01T05:38:01.246Z,12.76
2022-10-01T05:40:29.177Z,12.77
2022-10-01T05:42:57.092Z,12.78
2022-10-01T05:45:24.454Z,12.81
2022-10-01T05:48:03.631Z,12.81
2022-10-01T05:50:32.213Z,12.85
2022-10-01T05:52:59.575Z,12.88
2022-10-01T05:55:27.011Z,12.90
2022-10-01T05:58:03.760Z,12.90
2022-10-01T06:00:31.281Z,12.96
2022-10-01T06:02:59.034Z,12.99
2022-10-01T06:05:27.379Z,13.01
2022-10-01T06:07:53.917Z,13.03
2022-10-01T06:10:22.210Z,13.06
2022-10-01T06:12:48.852Z,13.08
2022-10-01T06:15:16.994Z,13.10
2022-10-01T06:17:45.271Z,13.11
2022-10-01T06:20:13.797Z,13.12
2022-10-01T06:22:41.519Z,13.15
2022-10-01T06:25:08.682Z,13.18
2022-10-01T06:27:35.235Z,13.21
2022-10-01T06:30:02.236Z,13.22
2022-10-01T06:32:31.663Z,13.25
2022-10-01T06:35:01.269Z,13.27
2022-10-01T06:37:27.823Z,13.31
2022-10-01T06:39:54.349Z,13.35
2022-10-01T06:42:20.895Z,13.35
2022-10-01T06:44:47.465Z,13.39
2022-10-01T06:47:13.945Z,13.41
2022-10-01T06:49:43.586Z,13.44
2022-10-01T06:52:30.792Z,13.46
2022-10-01T06:54:57.465Z,13.50
2022-10-01T06:57:24.019Z,13.51
2022-10-01T06:59:52.147Z,13.53
2022-10-01T07:02:28.852Z,13.55
2022-10-01T07:04:59.541Z,13.58
2022-10-01T07:07:32.905Z,13.61
2022-10-01T07:09:59.498Z,13.64
2022-10-01T07:12:26.475Z,13.67
2022-10-01T07:14:53.893Z,13.72
2022-10-01T07:17:21.501Z,13.75
2022-10-01T07:19:48.069Z,13.78
2022-10-01T07:22:14.642Z,13.81
2022-10-01T07:24:41.153Z,13.85
2022-10-01T07:27:07.754Z,13.87
2022-10-01T07:29:34.628Z,13.91
2022-10-01T07:32:01.978Z,13.94
2022-10-01T07:34:31.051Z,13.98
2022-10-01T07:36:57.593Z,14.01
2022-10-01T07:39:24.108Z,14.04
2022-10-01T07:41:51.581Z,14.08
2022-10-01T07:44:19.065Z,14.11
2022-10-01T07:46:47.236Z,14.15
2022-10-01T07:49:13.866Z,14.19
2022-10-01T07:51:40.742Z,14.24
2022-10-01T07:54:07.410Z,14.28
2022-10-01T07:56:33.951Z,14.32
2022-10-01T07:59:00.487Z,14.35
2022-10-01T08:01:27.214Z,14.39
2022-10-01T08:03:54.272Z,14.43
2022-10-01T08:06:25.586Z,14.48
2022-10-01T08:08:52.412Z,14.52
2022-10-01T08:11:18.995Z,14.55
2022-10-01T08:13:45.885Z,14.59
2022-10-01T08:16:12.967Z,14.63
2022-10-01T08:18:42.943Z,14.68
2022-10-01T08:21:09.669Z,14.71
2022-10-01T08:23:36.405Z,14.75
2022-10-01T08:26:08.607Z,14.78
2022-10-01T08:28:35.760Z,14.84
2022-10-01T08:31:09.948Z,14.86
2022-10-01T08:33:38.407Z,14.90
2022-10-01T08:36:09.249Z,14.93
2022-10-01T08:38:36.915Z,14.98
2022-10-01T08:41:23.807Z,14.98
2022-10-01T08:43:51.717Z,15.05
2022-10-01T08:46:21.323Z,15.08
2022-10-01T08:48:57.575Z,15.11
2022-10-01T08:51:45.233Z,15.14
2022-10-01T08:54:28.564Z,15.16
2022-10-01T08:56:57.024Z,15.23
2022-10-01T08:59:38.191Z,15.29
2022-10-01T09:02:22.284Z,15.27
2022-10-01T09:04:53.573Z,15.32
2022-10-01T09:07:49.553Z,15.32
2022-10-01T09:10:35.892Z,15.34
2022-10-01T09:13:20.356Z,15.41
2022-10-01T09:16:28.455Z,15.44
2022-10-01T09:19:22.860Z,15.53
2022-10-01T09:22:03.424Z,15.59
2022-10-01T09:24:45.776Z,15.66
2022-10-01T09:27:18.368Z,15.75
2022-10-01T09:29:55.947Z,15.80
2022-10-01T09:32:27.368Z,15.88
2022-10-01T09:34:54.777Z,15.92
2022-10-01T09:37:24.052Z,15.94
2022-10-01T09:40:15.822Z,15.92
2022-10-01T09:42:43.671Z,15.99
2022-10-01T09:45:18.943Z,15.99
2022-10-01T09:47:51.002Z,16.05
2022-10-01T09:50:34.777Z,16.09
2022-10-01T09:53:02.514Z,16.20
2022-10-01T09:55:42.774Z,16.26
2022-10-01T09:58:14.868Z,16.40
2022-10-01T10:00:42.533Z,16.54
2022-10-01T10:03:09.314Z,16.66
2022-10-01T10:05:48.241Z,16.75
2022-10-01T10:08:39.535Z,16.90
2022-10-01T10:11:10.476Z,17.03
2022-10-01T10:13:49.913Z,17.13
2022-10-01T10:16:26.457Z,17.25
2022-10-01T10:19:18.118Z,17.38
2022-10-01T10:21:52.922Z,17.53
2022-10-01T10:24:31.295Z,17.65
2022-10-01T10:26:59.560Z,17.77
2022-10-01T10:29:31.907Z,17.81
2022-10-01T10:32:02.967Z,17.87
2022-10-01T10:34:42.450Z,17.90
2022-10-01T10:37:18.104Z,17.95
2022-10-01T10:39:54.084Z,18.03
2022-10-01T10:42:22.685Z,18.13
2022-10-01T10:44:51.477Z,18.19
2022-10-01T10:47:20.667Z,18.27
2022-10-01T10:50:00.232Z,18.35
2022-10-01T10:52:33.339Z,18.51
2022-10-01T10:55:02.025Z,18.66
2022-10-01T10:57:30.799Z,18.81
2022-10-01T11:00:04.959Z,18.99
2022-10-01T11:02:33.670Z,19.22
2022-10-01T11:05:21.955Z,19.36
2022-10-01T11:07:53.231Z,19.53
2022-10-01T11:10:38.091Z,19.62
2022-10-01T11:13:35.707Z,19.70
2022-10-01T11:16:29.574Z,19.72
2022-10-01T11:19:08.823Z,19.66
2022-10-01T11:22:04.611Z,19.60
2022-10-01T11:25:08.850Z,19.38
2022-10-01T11:27:53.950Z,19.30
2022-10-01T11:30:26.742Z,19.18
2022-10-01T11:32:56.015Z,19.20
2022-10-01T11:35:26.225Z,19.33
2022-10-01T11:38:13.358Z,19.61
2022-10-01T11:40:47.631Z,20.13
2022-10-01T11:43:30.603Z,20.73
2022-10-01T11:46:01.057Z,21.34
2022-10-01T11:48:40.416Z,22.07
2022-10-01T11:51:16.511Z,22.64
2022-10-01T11:53:48.954Z,23.14
2022-10-01T11:56:40.670Z,23.61
2022-10-01T11:59:13.876Z,24.17
2022-10-01T12:01:53.574Z,24.65
2022-10-01T12:04:39.246Z,24.98
2022-10-01T12:07:21.035Z,25.03
2022-10-01T12:10:17.367Z,24.85
2022-10-01T12:13:28.008Z,24.73
2022-10-01T12:16:12.722Z,24.69
2022-10-01T12:18:39.230Z,24.70
2022-10-01T12:21:23.762Z,24.48
2022-10-01T12:24:00.739Z,24.27
2022-10-01T12:26:42.662Z,23.98
2022-10-01T12:29:17.215Z,23.67
2022-10-01T12:32:05.150Z,23.20
2022-10-01T12:35:07.260Z,22.83
2022-10-01T12:37:49.323Z,22.37
2022-10-01T12:40:30.908Z,21.87
2022-10-01T12:43:29.328Z,21.33
2022-10-01T12:46:14.190Z,20.75
2022-10-01T12:48:58.013Z,20.21
2022-10-01T12:51:44.714Z,19.56
2022-10-01T12:54:40.261Z,19.02
2022-10-01T12:57:37.036Z,18.56
2022-10-01T13:00:19.367Z,18.18
2022-10-01T13:03:10.579Z,17.93
2022-10-01T13:06:11.331Z,17.65
2022-10-01T13:08:43.788Z,17.50
2022-10-01T13:11:22.579Z,17.30
2022-10-01T13:13:51.555Z,17.21
2022-10-01T13:16:33.687Z,17.08
2022-10-01T13:19:38.768Z,16.97
2022-10-01T13:22:32.477Z,16.98
2022-10-01T13:25:26.906Z,17.08
2022-10-01T13:28:05.836Z,17.24
2022-10-01T13:30:44.604Z,17.41
2022-10-01T13:33:26.867Z,17.53
2022-10-01T13:35:58.959Z,17.66
2022-10-01T13:38:39.310Z,17.82
2022-10-01T13:41:28.282Z,18.20
2022-10-01T13:44:16.858Z,18.76
2022-10-01T13:46:53.041Z,19.53
2022-10-01T13:49:25.727Z,20.30
2022-10-01T13:51:52.661Z,21.09
2022-10-01T13:54:43.313Z,21.95
2022-10-01T13:57:34.196Z,22.78
2022-10-01T14:00:23.290Z,23.63
2022-10-01T14:03:27.475Z,24.37
2022-10-01T14:05:57.503Z,25.06
2022-10-01T14:08:33.856Z,25.55
2022-10-01T14:11:43.542Z,25.89
2022-10-01T14:14:47.225Z,26.17
2022-10-01T14:17:15.170Z,26.32
2022-10-01T14:19:50.944Z,26.40
2022-10-01T14:22:32.635Z,26.59
2022-10-01T14:25:29.253Z,26.84
2022-10-01T14:28:14.138Z,27.09
2022-10-01T14:31:09.460Z,27.09
2022-10-01T14:33:43.749Z,26.88
2022-10-01T14:36:16.767Z,26.46
2022-10-01T14:38:43.497Z,25.92
2022-10-01T14:41:21.000Z,25.16
2022-10-01T14:43:47.561Z,24.62
2022-10-01T14:46:17.138Z,24.02
2022-10-01T14:48:44.181Z,23.47
2022-10-01T14:51:29.302Z,22.81
2022-10-01T14:53:59.305Z,22.36
2022-10-01T14:56:28.224Z,21.89
2022-10-01T14:59:01.780Z,21.40
2022-10-01T15:01:28.456Z,21.04
2022-10-01T15:03:55.538Z,20.69
2022-10-01T15:06:24.845Z,20.37
2022-10-01T15:08:54.933Z,20.12
2022-10-01T15:11:24.657Z,20.02
2022-10-01T15:13:54.638Z,20.10
2022-10-01T15:16:27.463Z,20.26
2022-10-01T15:19:00.821Z,20.46
2022-10-01T15:21:57.692Z,20.53
2022-10-01T15:24:57.118Z,20.53
2022-10-01T15:27:24.872Z,20.51
2022-10-01T15:29:56.214Z,20.36
2022-10-01T15:32:24.143Z,20.24
2022-10-01T15:34:59.909Z,20.03
2022-10-01T15:37:36.604Z,19.89
2022-10-01T15:40:07.771Z,19.75
2022-10-01T15:42:35.279Z,19.61
2022-10-01T15:45:26.026Z,19.38
2022-10-01T15:47:56.961Z,19.30
2022-10-01T15:50:23.513Z,19.13
2022-10-01T15:53:03.571Z,18.93
2022-10-01T15:55:34.817Z,18.75
2022-10-01T15:58:10.506Z,18.58
2022-10-01T16:00:59.017Z,18.41
2022-10-01T16:03:31.311Z,18.34
2022-10-01T16:06:01.812Z,18.26
2022-10-01T16:08:34.659Z,18.16
2022-10-01T16:11:17.849Z,18.04
2022-10-01T16:13:50.391Z,17.96
2022-10-01T16:16:21.907Z,17.84
2022-10-01T16:18:54.111Z,17.74
2022-10-01T16:21:21.163Z,17.67
2022-10-01T16:23:53.128Z,17.54
2022-10-01T16:26:32.530Z,17.42
2022-10-01T16:29:03.319Z,17.38
2022-10-01T16:31:30.998Z,17.34
2022-10-01T16:33:57.838Z,17.30
2022-10-01T16:36:26.312Z,17.28
2022-10-01T16:38:53.424Z,17.26
2022-10-01T16:41:23.191Z,17.22
2022-10-01T16:43:51.009Z,17.23
2022-10-01T16:46:18.077Z,17.21
2022-10-01T16:48:48.846Z,17.18
2022-10-01T16:51:15.378Z,17.17
2022-10-01T16:53:42.977Z,17.14
2022-10-01T16:56:10.867Z,17.09
2022-10-01T16:58:44.316Z,17.01
2022-10-01T17:01:14.345Z,16.95
2022-10-01T17:03:41.717Z,16.89
2022-10-01T17:06:08.265Z,16.80
2022-10-01T17:08:34.804Z,16.73
2022-10-01T17:11:02.722Z,16.65
2022-10-01T17:13:32.780Z,16.58
2022-10-01T17:16:00.803Z,16.51
2022-10-01T17:18:28.011Z,16.46
2022-10-01T17:20:56.161Z,16.38
2022-10-01T17:23:23.338Z,16.35
2022-10-01T17:25:50.056Z,16.28
2022-10-01T17:28:19.929Z,16.24
2022-10-01T17:30:48.224Z,16.21
2022-10-01T17:33:19.152Z,16.18
2022-10-01T17:35:51.723Z,16.15
2022-10-01T17:38:19.479Z,16.15
2022-10-01T17:40:46.335Z,16.13
2022-10-01T17:43:14.801Z,16.11
2022-10-01T17:45:42.313Z,16.12
2022-10-01T17:48:09.512Z,16.10
2022-10-01T17:50:43.786Z,16.10
2022-10-01T17:53:12.056Z,16.07
2022-10-01T17:55:42.957Z,16.02
2022-10-01T17:58:10.330Z,16.00
2022-10-01T18:00:37.361Z,15.95
2022-10-01T18:03:04.449Z,15.89
2022-10-01T18:05:31.203Z,15.83
2022-10-01T18:07:57.805Z,15.77
2022-10-01T18:10:24.404Z,15.71
2022-10-01T18:12:50.965Z,15.66
2022-10-01T18:15:20.341Z,15.61
2022-10-01T18:17:51.389Z,15.56
2022-10-01T18:20:22.798Z,15.50
2022-10-01T18:22:50.378Z,15.47
2022-10-01T18:25:19.415Z,15.41
2022-10-01T18:27:49.960Z,15.39
2022-10-01T18:30:17.255Z,15.36
2022-10-01T18:32:49.573Z,15.31
2022-10-01T18:35:35.193Z,15.26
2022-10-01T18:38:09.184Z,15.26
2022-10-01T18:40:43.694Z,15.26
2022-10-01T18:43:20.558Z,15.24
2022-10-01T18:45:59.281Z,15.22
2022-10-01T18:48:28.574Z,15.24
2022-10-01T18:51:16.494Z,15.25
2022-10-01T18:54:22.640Z,15.24
2022-10-01T18:57:03.303Z,15.31
2022-10-01T18:59:51.419Z,15.32
2022-10-01T19:02:29.894Z,15.38
2022-10-01T19:05:35.249Z,15.39
2022-10-01T19:08:31.471Z,15.44
2022-10-01T19:11:10.481Z,15.51
2022-10-01T19:13:52.617Z,15.54
2022-10-01T19:16:28.291Z,15.60
2022-10-01T19:19:22.259Z,15.59
2022-10-01T19:22:10.803Z,15.65
2022-10-01T19:25:10.942Z,15.67
2022-10-01T19:27:49.543Z,15.69
2022-10-01T19:30:18.167Z,15.72
2022-10-01T19:32:44.607Z,15.73
2022-10-01T19:35:20.323Z,15.70
2022-10-01T19:37:52.142Z,15.72
2022-10-01T19:40:33.821Z,15.71
2022-10-01T19:43:10.129Z,15.70
2022-10-01T19:45:50.235Z,15.68
2022-10-01T19:48:29.973Z,15.68
2022-10-01T19:51:06.867Z,15.67
2022-10-01T19:53:37.465Z,15.66
2022-10-01T19:56:04.927Z,15.66
2022-10-01T19:58:32.352Z,15.62
2022-10-01T20:01:01.654Z,15.60
2022-10-01T20:03:43.685Z,15.54
2022-10-01T20:06:39.075Z,15.49
2022-10-01T20:09:35.187Z,15.48
2022-10-01T20:12:11.145Z,15.47
2022-10-01T20:15:02.340Z,15.45
2022-10-01T20:17:38.703Z,15.41
2022-10-01T20:20:32.823Z,15.41
2022-10-01T20:23:02.413Z,15.41
2022-10-01T20:25:49.309Z,15.37
2022-10-01T20:28:27.636Z,15.37
2022-10-01T20:31:39.532Z,15.35
2022-10-01T20:34:19.302Z,15.38
2022-10-01T20:37:12.973Z,15.37
2022-10-01T20:39:46.877Z,15.34
2022-10-01T20:42:24.127Z,15.30
2022-10-01T20:44:53.074Z,15.30
2022-10-01T20:47:31.413Z,15.27
2022-10-01T20:50:09.559Z,15.22
2022-10-01T20:52:49.787Z,15.20
2022-10-01T20:55:26.752Z,15.18
2022-10-01T20:57:58.666Z,15.16
2022-10-01T21:00:27.969Z,15.14
2022-10-01T21:03:25.521Z,15.08
2022-10-01T21:05:58.373Z,15.11
2022-10-01T21:08:32.689Z,15.06
2022-10-01T21:11:07.951Z,15.07
2022-10-01T21:14:04.714Z,15.03
2022-10-01T21:16:40.586Z,15.07
2022-10-01T21:19:37.211Z,15.01
2022-10-01T21:22:17.161Z,15.01
2022-10-01T21:24:56.513Z,14.96
2022-10-01T21:27:29.037Z,14.93
2022-10-01T21:30:11.151Z,14.89
2022-10-01T21:33:11.274Z,14.85
2022-10-01T21:36:03.180Z,14.82
2022-10-01T21:38:45.302Z,14.81
2022-10-01T21:41:34.068Z,14.78
2022-10-01T21:44:43.907Z,14.71
2022-10-01T21:47:33.789Z,14.70
2022-10-01T21:50:18.837Z,14.67
2022-10-01T21:53:06.684Z,14.65
2022-10-01T21:56:01.985Z,14.64
2022-10-01T21:58:53.313Z,14.60
2022-10-01T22:01:56.966Z,14.57
2022-10-01T22:04:50.435Z,14.57
2022-10-01T22:07:33.629Z,14.54
2022-10-01T22:10:06.538Z,14.53
2022-10-01T22:12:37.849Z,14.52
2022-10-01T22:15:19.596Z,14.46
2022-10-01T22:17:49.236Z,14.50
2022-10-01T22:20:18.943Z,14.50
2022-10-01T22:22:47.315Z,14.49
2022-10-01T22:25:14.595Z,14.48
2022-10-01T22:27:44.268Z,14.46
2022-10-01T22:30:12.881Z,14.47
2022-10-01T22:32:47.213Z,14.44
2022-10-01T22:35:24.600Z,14.42
2022-10-01T22:38:16.412Z,14.39
2022-10-01T22:40:49.619Z,14.42
2022-10-01T22:43:16.269Z,14.42
2022-10-01T22:45:50.231Z,14.39
2022-10-01T22:48:43.638Z,14.38
2022-10-01T22:51:44.199Z,14.38
2022-10-01T22:54:48.141Z,14.37
2022-10-01T22:57:20.351Z,14.41
2022-10-01T23:00:11.302Z,14.35
2022-10-01T23:03:16.976Z,14.33
2022-10-01T23:05:49.572Z,14.36
2022-10-01T23:08:33.955Z,14.34
2022-10-01T23:11:11.452Z,14.33
2022-10-01T23:13:51.991Z,14.30
2022-10-01T23:16:40.489Z,14.28
2022-10-01T23:19:31.498Z,14.25
2022-10-01T23:22:15.164Z,14.25
2022-10-01T23:25:04.313Z,14.25
2022-10-01T23:27:36.776Z,14.24
2022-10-01T23:30:16.210Z,14.25
2022-10-01T23:33:23.400Z,14.19
2022-10-01T23:36:25.711Z,14.20
2022-10-01T23:39:31.858Z,14.20
2022-10-01T23:42:27.949Z,14.22
2022-10-01T23:45:00.390Z,14.24
2022-10-01T23:47:36.419Z,14.22
2022-10-01T23:50:06.541Z,14.22
2022-10-01T23:52:45.293Z,14.20
2022-10-01T23:55:36.502Z,14.22
2022-10-01T23:58:05.860Z,14.24
